Hinze Dam Nerang River, Queensland

5:26 PM AEST on October 01, 2014 (GMT +1000)
Worongary | Change Station
CLOSE
Current Station
Personal Weather Station
Location: Worongary, QUEENSLAND
Elevation: 72 ft
Nearby Weather Stations

Elev 72 ft 28.03 °S, 153.34 °E | Updated 9 seconds ago

Overcast
Overcast
75.7 °F
Feels Like 78 °F
N
1.6
Wind Variable Wind from South
Gusts 7.6 mph

Today
High -- | Low -- °F
--% Chance of Precip.
Yesterday
High -- | Low -- °F
Precip. -- in
5:26 AM 5:47 PM
Waxing Crescent, 44% visible
Pressure 29.95 in
Visibility 5.0 miles
Clouds Mostly Cloudy 2000 ft
Mostly Cloudy 2500 ft
Overcast 3300 ft
Heat Index 78 °F
Dew Point 62 °F
Humidity 63%
Rainfall 0.00 in
Snow Depth Not available.
UV 0 out of 12
Pollen Not available.
Air Quality Not available.
Flu Activity Not available.
SPECI YBCG 010702Z AUTO 18017G27KT 8000 // BKN020 BKN025 OVC033 22/17 Q1014

More Conditions Fewer Conditions

Pressure 29.95 in
Visibility 5.0 miles
Clouds Mostly Cloudy 2000 ft
Mostly Cloudy 2500 ft
Overcast 3300 ft
Heat Index 78 °F
Dew Point 62 °F
Humidity 63%
Rainfall 0.00 in
Snow Depth Not available.
UV 0 out of 12
Pollen Not available.
Air Quality Not available.
Flu Activity Not available.
SPECI YBCG 010702Z AUTO 18017G27KT 8000 // BKN020 BKN025 OVC033 22/17 Q1014

More Conditions Fewer Conditions

10-Day Weather Forecast

Almanac

Astronomy

Oct. 01, 2014 Rise Set
Actual Time 5:26 AM AEST 5:47 PM AEST
Civil Twilight 5:03 AM AEST 6:10 PM AEST
Nautical Twilight 4:35 AM AEST 6:38 PM AEST
Astronomical Twilight 4:07 AM AEST 7:06 PM AEST
Moon 10:17 AM AEST No Moon Set
Length of Visible Light 13h 07m
Length of Day
12h 20m
Tomorrow will be 1m 41s longer.
Waxing Crescent, 44% of the Moon is Illuminated
Today
Waxing Crescent
Oct 1
First Quarter
Oct 8
Full
Oct 15
Last Quarter
Oct 23
New

Yesterday's Extremes

Country Highs Country Lows

Community

WunderPhotos

Upload Photos

1,757,898 photos uploaded!

Nearby

Snow Depth

Not available.

Earthquake Activity

City Distance Mag. Time & Date
No recent earthquake activity has been reported nearby.
Minimum magnitude displayed is 2.5.

Coastal Water Temperatures

Place Temperature
No Stations Reporting

Nearby Weather Stations